createdAt,value
2022-12-01T00:02:06.812Z,35.46
2022-12-01T00:04:33.959Z,34.87
2022-12-01T00:07:00.961Z,36.41
2022-12-01T00:09:46.549Z,37.43
2022-12-01T00:12:13.769Z,38.29
2022-12-01T00:14:40.671Z,40.78
2022-12-01T00:17:07.522Z,40.76
2022-12-01T00:19:34.674Z,43.32
2022-12-01T00:22:01.857Z,43.76
2022-12-01T00:24:28.802Z,44.85
2022-12-01T00:26:55.887Z,45.68
2022-12-01T00:29:22.767Z,45.40
2022-12-01T00:31:49.862Z,46.52
2022-12-01T00:34:24.932Z,46.77
2022-12-01T00:36:51.981Z,46.12
2022-12-01T00:39:19.047Z,45.40
2022-12-01T00:41:45.948Z,45.54
2022-12-01T00:44:12.796Z,44.57
2022-12-01T00:46:39.902Z,43.38
2022-12-01T00:49:07.013Z,42.10
2022-12-01T00:51:34.140Z,41.92
2022-12-01T00:54:01.025Z,40.51
2022-12-01T00:56:28.135Z,40.69
2022-12-01T00:58:55.285Z,40.12
2022-12-01T01:01:22.210Z,40.51
2022-12-01T01:03:49.334Z,40.12
2022-12-01T01:06:16.675Z,38.86
2022-12-01T01:08:43.543Z,37.67
2022-12-01T01:11:10.624Z,37.94
2022-12-01T01:13:37.883Z,38.34
2022-12-01T01:16:08.451Z,39.26
2022-12-01T01:18:35.566Z,42.10
2022-12-01T01:21:06.839Z,41.01
2022-12-01T01:23:34.428Z,41.73
2022-12-01T01:26:29.416Z,40.77
2022-12-01T01:28:58.917Z,40.65
2022-12-01T01:31:28.428Z,40.74
2022-12-01T01:33:57.074Z,40.55
2022-12-01T01:36:25.084Z,41.78
2022-12-01T01:38:53.223Z,40.50
2022-12-01T01:41:22.000Z,40.67
2022-12-01T01:43:55.368Z,42.23
2022-12-01T01:46:26.652Z,40.62
2022-12-01T01:49:11.314Z,41.47
2022-12-01T01:51:38.127Z,41.74
2022-12-01T01:54:17.854Z,42.60
2022-12-01T01:56:48.852Z,43.92
2022-12-01T01:59:22.300Z,42.35
2022-12-01T02:02:05.982Z,42.98
2022-12-01T02:04:35.305Z,43.59
2022-12-01T02:07:03.164Z,44.13
2022-12-01T02:09:30.016Z,45.43
2022-12-01T02:12:30.317Z,47.58
2022-12-01T02:15:32.237Z,46.83
2022-12-01T02:18:11.309Z,44.78
2022-12-01T02:20:50.220Z,47.09
2022-12-01T02:23:32.357Z,48.49
2022-12-01T02:26:42.545Z,48.03
2022-12-01T02:29:33.517Z,48.69
2022-12-01T02:32:16.677Z,49.28
2022-12-01T02:35:28.375Z,48.62
2022-12-01T02:37:55.202Z,49.70
2022-12-01T02:40:26.298Z,51.75
2022-12-01T02:43:05.472Z,50.21
2022-12-01T02:45:51.406Z,50.91
2022-12-01T02:48:53.174Z,51.27
2022-12-01T02:51:26.144Z,50.96
2022-12-01T02:53:55.826Z,50.72
2022-12-01T02:56:23.844Z,49.70
2022-12-01T02:58:51.429Z,51.84
2022-12-01T03:01:30.743Z,50.58
2022-12-01T03:04:08.862Z,51.85
2022-12-01T03:06:55.395Z,52.73
2022-12-01T03:09:54.949Z,50.50
2022-12-01T03:12:43.619Z,51.67
2022-12-01T03:15:35.814Z,50.89
2022-12-01T03:18:31.002Z,50.30
2022-12-01T03:21:21.235Z,50.59
2022-12-01T03:23:55.001Z,48.06
2022-12-01T03:26:25.055Z,50.07
2022-12-01T03:29:02.097Z,48.83
2022-12-01T03:31:40.702Z,48.93
2022-12-01T03:34:28.510Z,48.16
2022-12-01T03:37:06.994Z,49.36
2022-12-01T03:39:38.616Z,50.18
2022-12-01T03:42:12.677Z,50.31
2022-12-01T03:44:47.601Z,50.88
2022-12-01T03:47:20.729Z,52.10
2022-12-01T03:49:51.881Z,51.89
2022-12-01T03:52:45.572Z,51.45
2022-12-01T03:55:12.419Z,50.14
2022-12-01T03:58:01.507Z,50.61
2022-12-01T04:00:31.151Z,51.54
2022-12-01T04:03:03.219Z,50.77
2022-12-01T04:05:32.738Z,51.48
2022-12-01T04:08:00.158Z,52.23
2022-12-01T04:10:27.195Z,51.32
2022-12-01T04:12:59.082Z,49.60
2022-12-01T04:15:27.259Z,47.97
2022-12-01T04:17:54.852Z,48.32
2022-12-01T04:20:22.062Z,46.60
2022-12-01T04:22:48.969Z,43.66
2022-12-01T04:25:16.078Z,40.56
2022-12-01T04:27:42.928Z,38.75
2022-12-01T04:30:10.971Z,40.20
2022-12-01T04:32:42.114Z,39.44
2022-12-01T04:35:12.037Z,37.39
2022-12-01T04:37:39.905Z,37.12
2022-12-01T04:40:08.017Z,36.85
2022-12-01T04:42:34.869Z,36.88
2022-12-01T04:45:01.917Z,36.59
2022-12-01T04:47:28.743Z,35.23
2022-12-01T04:49:55.644Z,35.39
2022-12-01T04:52:22.479Z,33.64
2022-12-01T04:54:49.513Z,32.83
2022-12-01T04:57:16.570Z,31.95
2022-12-01T04:59:43.513Z,31.67
2022-12-01T05:02:10.448Z,31.54
2022-12-01T05:04:41.238Z,30.99
2022-12-01T05:07:08.482Z,30.68
2022-12-01T05:09:35.634Z,29.02
2022-12-01T05:12:02.673Z,28.10
2022-12-01T05:14:29.774Z,28.57
2022-12-01T05:16:58.059Z,29.74
2022-12-01T05:19:43.998Z,28.74
2022-12-01T05:22:10.845Z,28.22
2022-12-01T05:24:37.668Z,28.03
2022-12-01T05:27:04.593Z,27.81
2022-12-01T05:29:32.950Z,28.29
2022-12-01T05:32:00.138Z,29.30
2022-12-01T05:34:27.287Z,29.73
2022-12-01T05:36:54.137Z,30.37
2022-12-01T05:39:20.972Z,29.92
2022-12-01T05:41:47.814Z,29.04
2022-12-01T05:44:14.655Z,29.32
2022-12-01T05:46:41.669Z,29.64
2022-12-01T05:49:08.529Z,28.45
2022-12-01T05:51:35.543Z,29.58
2022-12-01T05:54:02.717Z,29.20
2022-12-01T05:56:29.608Z,28.80
2022-12-01T05:58:56.607Z,30.10
2022-12-01T06:01:23.672Z,28.96
2022-12-01T06:03:52.212Z,29.28
2022-12-01T06:06:19.634Z,28.49
2022-12-01T06:08:46.473Z,28.33
2022-12-01T06:11:13.364Z,29.04
2022-12-01T06:13:40.227Z,28.04
2022-12-01T06:16:07.450Z,27.48
2022-12-01T06:18:37.343Z,27.41
2022-12-01T06:21:06.313Z,27.65
2022-12-01T06:23:33.720Z,27.89
2022-12-01T06:26:00.576Z,26.49
2022-12-01T06:28:27.834Z,27.59
2022-12-01T06:31:01.041Z,27.41
2022-12-01T06:33:29.707Z,28.38
2022-12-01T06:36:06.051Z,27.93
2022-12-01T06:38:34.839Z,29.07
2022-12-01T06:41:02.525Z,28.42
2022-12-01T06:43:29.708Z,30.21
2022-12-01T06:46:01.540Z,34.73
2022-12-01T06:48:30.682Z,34.42
2022-12-01T06:50:59.434Z,36.62
2022-12-01T06:53:28.307Z,38.76
2022-12-01T06:56:00.330Z,40.35
2022-12-01T06:58:27.567Z,40.99
2022-12-01T07:00:54.738Z,40.42
2022-12-01T07:03:21.877Z,40.94
2022-12-01T07:06:00.406Z,41.59
2022-12-01T07:08:31.648Z,41.48
2022-12-01T07:11:05.393Z,42.23
2022-12-01T07:13:33.937Z,43.94
2022-12-01T07:16:03.140Z,43.49
2022-12-01T07:18:31.946Z,42.68
2022-12-01T07:21:03.851Z,42.78
2022-12-01T07:23:31.458Z,42.48
2022-12-01T07:26:07.572Z,42.65
2022-12-01T07:28:34.410Z,42.92
2022-12-01T07:31:06.771Z,42.05
2022-12-01T07:33:34.153Z,42.78
2022-12-01T07:36:01.046Z,43.98
2022-12-01T07:38:29.779Z,44.42
2022-12-01T07:41:02.773Z,45.43
2022-12-01T07:43:31.524Z,45.57
2022-12-01T07:46:12.852Z,45.07
2022-12-01T07:48:42.204Z,45.05
2022-12-01T07:51:13.021Z,44.46
2022-12-01T07:53:40.031Z,45.66
2022-12-01T07:56:08.910Z,44.60
2022-12-01T07:58:37.052Z,44.56
2022-12-01T08:01:08.485Z,44.97
2022-12-01T08:03:35.857Z,43.40
2022-12-01T08:06:03.643Z,43.72
2022-12-01T08:08:34.038Z,44.73
2022-12-01T08:11:06.445Z,44.57
2022-12-01T08:13:34.054Z,43.82
2022-12-01T08:16:04.994Z,43.85
2022-12-01T08:18:38.376Z,44.66
2022-12-01T08:21:08.169Z,43.59
2022-12-01T08:23:35.213Z,43.31
2022-12-01T08:26:07.982Z,43.54
2022-12-01T08:28:36.745Z,44.42
2022-12-01T08:31:12.964Z,43.03
2022-12-01T08:33:39.932Z,42.59
2022-12-01T08:36:07.443Z,43.28
2022-12-01T08:38:34.667Z,43.84
2022-12-01T08:41:03.593Z,41.68
2022-12-01T08:46:17.785Z,44.21
2022-12-01T08:48:44.720Z,44.40
2022-12-01T08:51:17.507Z,43.02
2022-12-01T08:53:49.774Z,44.69
2022-12-01T08:56:26.189Z,45.71
2022-12-01T08:58:54.904Z,44.79
2022-12-01T09:01:22.782Z,44.30
2022-12-01T09:04:04.867Z,44.94
2022-12-01T09:06:42.957Z,45.71
2022-12-01T09:09:13.308Z,45.63
2022-12-01T09:11:40.775Z,46.55
2022-12-01T09:14:07.626Z,45.29
2022-12-01T09:16:34.628Z,44.40
2022-12-01T09:19:01.972Z,45.29
2022-12-01T09:21:32.389Z,45.39
2022-12-01T09:26:47.561Z,45.42
2022-12-01T09:29:17.453Z,45.78
2022-12-01T09:31:44.779Z,45.47
2022-12-01T09:34:14.969Z,44.97
2022-12-01T09:36:42.062Z,46.00
2022-12-01T09:39:13.695Z,46.79
2022-12-01T09:41:56.749Z,46.98
2022-12-01T09:44:55.742Z,46.19
2022-12-01T09:47:28.819Z,45.47
2022-12-01T09:49:58.536Z,46.76
2022-12-01T09:52:28.926Z,47.27
2022-12-01T09:55:00.184Z,46.37
2022-12-01T09:57:36.738Z,45.16
2022-12-01T10:00:17.023Z,46.67
2022-12-01T10:03:10.771Z,46.57
2022-12-01T10:06:25.916Z,46.20
2022-12-01T10:09:10.663Z,44.37
2022-12-01T10:11:42.209Z,43.77
2022-12-01T10:14:19.653Z,43.10
2022-12-01T10:17:18.254Z,44.20
2022-12-01T10:20:04.040Z,44.28
2022-12-01T10:23:05.344Z,43.81
2022-12-01T10:26:07.498Z,44.94
2022-12-01T10:29:00.414Z,43.54
2022-12-01T10:31:36.557Z,43.50
2022-12-01T10:34:16.262Z,41.73
2022-12-01T10:36:43.809Z,42.87
2022-12-01T10:39:44.363Z,42.08
2022-12-01T10:42:29.826Z,41.69
2022-12-01T10:45:01.649Z,41.71
2022-12-01T10:47:29.238Z,41.37
2022-12-01T10:49:56.305Z,40.69
2022-12-01T10:52:38.795Z,40.31
2022-12-01T10:55:27.631Z,41.04
2022-12-01T10:57:57.930Z,39.21
2022-12-01T11:00:57.906Z,39.09
2022-12-01T11:03:30.007Z,39.90
2022-12-01T11:05:59.668Z,40.87
2022-12-01T11:08:54.178Z,38.76
2022-12-01T11:11:29.175Z,38.63
2022-12-01T11:13:59.796Z,38.79
2022-12-01T11:16:43.076Z,39.06
2022-12-01T11:19:21.886Z,38.16
2022-12-01T11:21:57.960Z,39.59
2022-12-01T11:24:33.806Z,38.88
2022-12-01T11:27:01.168Z,37.93
2022-12-01T11:29:38.010Z,39.17
2022-12-01T11:32:18.724Z,41.10
2022-12-01T11:34:59.630Z,44.27
2022-12-01T11:37:33.054Z,40.26
2022-12-01T11:40:23.613Z,40.20
2022-12-01T11:42:53.483Z,40.67
2022-12-01T11:45:20.247Z,40.60
2022-12-01T11:48:15.230Z,39.70
2022-12-01T11:50:47.955Z,40.89
2022-12-01T11:53:34.036Z,39.67
2022-12-01T11:56:33.552Z,38.95
2022-12-01T11:59:04.137Z,39.75
2022-12-01T12:01:58.255Z,39.08
2022-12-01T12:05:05.944Z,39.44
2022-12-01T12:08:06.249Z,39.87
2022-12-01T12:10:55.650Z,39.32
2022-12-01T12:13:35.587Z,39.39
2022-12-01T12:16:33.697Z,40.20
2022-12-01T12:19:33.793Z,39.21
2022-12-01T12:22:11.884Z,38.52
2022-12-01T12:24:57.269Z,38.39
2022-12-01T12:27:55.698Z,38.48
2022-12-01T12:30:46.562Z,36.90
2022-12-01T12:33:32.311Z,38.04
2022-12-01T12:35:59.292Z,38.26
2022-12-01T12:38:35.393Z,39.99
2022-12-01T12:41:22.343Z,40.64
2022-12-01T12:44:04.670Z,39.56
2022-12-01T12:46:49.020Z,42.47
2022-12-01T12:49:54.364Z,42.12
2022-12-01T12:52:26.503Z,40.53
2022-12-01T12:55:00.204Z,39.30
2022-12-01T12:57:37.885Z,38.17
2022-12-01T13:00:21.335Z,35.56
2022-12-01T13:03:10.778Z,33.78
2022-12-01T13:05:53.472Z,34.26
2022-12-01T13:08:42.663Z,35.63
2022-12-01T13:11:27.686Z,33.90
2022-12-01T13:14:12.071Z,33.63
2022-12-01T13:16:47.488Z,33.20
2022-12-01T13:19:32.204Z,32.71
2022-12-01T13:22:01.804Z,32.17
2022-12-01T13:24:31.192Z,32.49
2022-12-01T13:27:05.697Z,33.09
2022-12-01T13:29:44.027Z,34.38
2022-12-01T13:32:37.231Z,34.04
2022-12-01T13:35:22.306Z,34.33
2022-12-01T13:37:52.750Z,33.85
2022-12-01T13:40:27.147Z,34.70
2022-12-01T13:43:10.236Z,33.58
2022-12-01T13:45:41.163Z,32.78
2022-12-01T13:48:49.937Z,33.86
2022-12-01T13:51:16.813Z,33.09
2022-12-01T13:54:16.753Z,32.65
2022-12-01T13:57:01.414Z,31.70
2022-12-01T14:00:00.340Z,32.11
2022-12-01T14:02:30.406Z,33.33
2022-12-01T14:05:23.307Z,32.94
2022-12-01T14:07:52.485Z,34.12
2022-12-01T14:10:32.128Z,34.18
2022-12-01T14:13:04.528Z,32.26
2022-12-01T14:15:42.446Z,33.35
2022-12-01T14:18:36.251Z,33.11
2022-12-01T14:21:07.689Z,32.92
2022-12-01T14:23:58.523Z,32.12
2022-12-01T14:26:29.607Z,32.14
2022-12-01T14:29:02.295Z,31.45
2022-12-01T14:31:35.247Z,30.60
2022-12-01T14:34:02.662Z,30.46
2022-12-01T14:36:40.913Z,32.02
2022-12-01T14:39:19.454Z,32.22
2022-12-01T14:41:49.102Z,33.32
2022-12-01T14:44:33.250Z,32.58
2022-12-01T14:47:05.162Z,32.61
2022-12-01T14:49:39.503Z,31.48
2022-12-01T14:52:17.674Z,32.00
2022-12-01T14:54:49.844Z,34.84
2022-12-01T14:57:23.410Z,31.57
2022-12-01T15:00:16.012Z,31.08
2022-12-01T15:03:07.096Z,31.36
2022-12-01T15:05:41.013Z,31.71
2022-12-01T15:11:30.100Z,34.08
2022-12-01T15:13:57.776Z,33.72
2022-12-01T15:16:28.984Z,37.51
2022-12-01T15:18:56.470Z,35.51
2022-12-01T15:21:30.925Z,34.91
2022-12-01T15:23:57.993Z,34.35
2022-12-01T15:26:29.770Z,35.02
2022-12-01T15:29:25.538Z,44.46
2022-12-01T15:32:02.814Z,37.42
2022-12-01T15:34:34.900Z,35.50
2022-12-01T15:37:10.995Z,36.92
2022-12-01T15:39:46.921Z,36.36
2022-12-01T15:42:27.625Z,38.15
2022-12-01T15:45:00.787Z,38.62
2022-12-01T15:47:43.414Z,44.06
2022-12-01T15:50:41.257Z,41.25
2022-12-01T15:53:27.042Z,41.75
2022-12-01T15:55:59.317Z,41.48
2022-12-01T15:58:32.889Z,43.03
2022-12-01T16:01:09.369Z,43.84
2022-12-01T16:03:56.327Z,44.26
2022-12-01T16:06:28.843Z,47.19
2022-12-01T16:09:06.740Z,45.31
2022-12-01T16:11:33.931Z,45.68
2022-12-01T16:14:20.181Z,48.22
2022-12-01T16:16:49.283Z,48.04
2022-12-01T16:19:16.300Z,48.72
2022-12-01T16:21:56.737Z,50.28
2022-12-01T16:24:27.599Z,50.31
2022-12-01T16:27:02.556Z,51.05
2022-12-01T16:29:50.481Z,54.82
2022-12-01T16:32:23.895Z,54.71
2022-12-01T16:34:55.909Z,54.62
2022-12-01T16:37:23.108Z,53.47
2022-12-01T16:39:50.497Z,56.70
2022-12-01T16:42:20.987Z,56.05
2022-12-01T16:44:49.887Z,56.42
2022-12-01T16:47:23.781Z,56.31
2022-12-01T16:49:52.283Z,55.25
2022-12-01T16:52:43.772Z,53.94
2022-12-01T16:55:31.609Z,55.20
2022-12-01T16:57:58.826Z,53.09
2022-12-01T17:00:25.964Z,54.83
2022-12-01T17:02:53.068Z,55.61
2022-12-01T17:05:20.101Z,57.73
2022-12-01T17:07:47.547Z,56.52
2022-12-01T17:10:15.872Z,54.69
2022-12-01T17:12:42.799Z,53.57
2022-12-01T17:15:10.398Z,53.70
2022-12-01T17:17:37.871Z,53.85
2022-12-01T17:20:06.083Z,52.66
2022-12-01T17:22:33.718Z,52.31
2022-12-01T17:25:02.188Z,53.98
2022-12-01T17:27:31.271Z,57.11
2022-12-01T17:29:58.871Z,53.53
2022-12-01T17:32:27.070Z,54.10
2022-12-01T17:34:54.342Z,53.43
2022-12-01T17:37:21.665Z,53.45
2022-12-01T17:39:50.134Z,53.93
2022-12-01T17:42:17.003Z,55.09
2022-12-01T17:44:44.066Z,55.92
2022-12-01T17:47:11.706Z,56.09
2022-12-01T17:49:38.755Z,56.29
2022-12-01T17:52:06.973Z,57.98
2022-12-01T17:54:33.928Z,59.55
2022-12-01T17:57:00.750Z,58.94
2022-12-01T17:59:27.636Z,59.39
2022-12-01T18:01:54.755Z,60.92
2022-12-01T18:04:21.769Z,62.81
2022-12-01T18:06:53.725Z,60.64
2022-12-01T18:09:21.983Z,63.21
2022-12-01T18:11:49.657Z,61.58
2022-12-01T18:14:17.665Z,63.63
2022-12-01T18:16:45.241Z,63.97
2022-12-01T18:19:12.403Z,64.99
2022-12-01T18:21:40.339Z,65.50
2022-12-01T18:24:11.017Z,67.42
2022-12-01T18:26:39.992Z,71.45
2022-12-01T18:29:12.460Z,67.65
2022-12-01T18:31:43.067Z,70.53
2022-12-01T18:34:12.939Z,84.61
2022-12-01T18:36:41.218Z,68.02
2022-12-01T18:39:10.944Z,69.81
2022-12-01T18:41:38.261Z,71.51
2022-12-01T18:44:05.864Z,70.32
2022-12-01T18:46:33.609Z,66.53
2022-12-01T18:49:02.731Z,67.62
2022-12-01T18:51:32.779Z,70.26
2022-12-01T18:54:01.654Z,68.53
2022-12-01T18:56:29.479Z,71.04
2022-12-01T18:58:58.305Z,71.37
2022-12-01T19:01:28.302Z,69.07
2022-12-01T19:03:56.616Z,73.87
2022-12-01T19:06:23.969Z,74.21
2022-12-01T19:08:52.308Z,77.94
2022-12-01T19:11:20.149Z,75.37
2022-12-01T19:13:47.767Z,76.06
2022-12-01T19:16:17.655Z,73.46
2022-12-01T19:18:45.280Z,74.57
2022-12-01T19:21:15.306Z,74.83
2022-12-01T19:23:43.489Z,72.12
2022-12-01T19:26:13.332Z,71.59
2022-12-01T19:28:42.085Z,72.90
2022-12-01T19:31:12.498Z,73.53
2022-12-01T19:33:40.417Z,70.35
2022-12-01T19:36:10.526Z,72.22
2022-12-01T19:38:38.672Z,72.28
2022-12-01T19:41:07.099Z,77.44
2022-12-01T19:43:35.245Z,83.33
2022-12-01T19:46:10.615Z,73.16
2022-12-01T19:48:38.092Z,73.94
2022-12-01T19:51:05.639Z,73.55
2022-12-01T19:53:34.043Z,73.72
2022-12-01T19:56:02.994Z,71.18
2022-12-01T19:58:33.209Z,72.38
2022-12-01T20:01:05.281Z,68.66
2022-12-01T20:03:32.526Z,69.92
2022-12-01T20:06:05.063Z,69.45
2022-12-01T20:08:35.660Z,70.12
2022-12-01T20:11:04.486Z,70.68
2022-12-01T20:13:34.007Z,68.64
2022-12-01T20:16:03.096Z,69.01
2022-12-01T20:18:31.060Z,68.64
2022-12-01T20:21:18.883Z,69.33
2022-12-01T20:24:07.252Z,68.22
2022-12-01T20:26:37.328Z,68.21
2022-12-01T20:29:26.241Z,68.01
2022-12-01T20:31:55.597Z,70.75
2022-12-01T20:34:26.926Z,66.51
2022-12-01T20:36:54.404Z,67.23
2022-12-01T20:39:22.574Z,67.04
2022-12-01T20:41:49.998Z,67.07
2022-12-01T20:44:17.503Z,66.62
2022-12-01T20:46:45.764Z,64.58
2022-12-01T20:49:15.074Z,64.90
2022-12-01T20:51:42.286Z,64.56
2022-12-01T20:54:29.101Z,65.85
2022-12-01T20:56:57.809Z,65.18
2022-12-01T20:59:24.806Z,64.92
2022-12-01T21:01:51.793Z,64.69
2022-12-01T21:04:18.746Z,64.88
2022-12-01T21:06:46.194Z,64.22
2022-12-01T21:09:14.573Z,64.75
2022-12-01T21:12:08.865Z,66.64
2022-12-01T21:14:53.859Z,64.72
2022-12-01T21:17:39.549Z,66.43
2022-12-01T21:20:21.288Z,66.50
2022-12-01T21:22:50.757Z,65.34
2022-12-01T21:25:23.343Z,66.17
2022-12-01T21:27:50.491Z,66.45
2022-12-01T21:30:21.787Z,67.63
2022-12-01T21:32:49.741Z,66.78
2022-12-01T21:35:24.914Z,67.45
2022-12-01T21:38:00.394Z,67.97
2022-12-01T21:40:28.355Z,63.69
2022-12-01T21:43:01.467Z,65.01
2022-12-01T21:45:31.952Z,63.89
2022-12-01T21:48:15.678Z,61.22
2022-12-01T21:50:42.645Z,59.47
2022-12-01T21:53:19.804Z,59.12
2022-12-01T21:55:47.839Z,55.95
2022-12-01T21:58:31.274Z,54.74
2022-12-01T22:00:59.893Z,53.37
2022-12-01T22:03:32.090Z,51.01
2022-12-01T22:06:29.676Z,51.53
2022-12-01T22:09:11.737Z,50.16
2022-12-01T22:11:38.570Z,51.09
2022-12-01T22:14:08.472Z,52.43
2022-12-01T22:16:38.213Z,50.20
2022-12-01T22:19:17.123Z,51.58
2022-12-01T22:21:48.915Z,50.54
2022-12-01T22:24:25.390Z,48.23
2022-12-01T22:27:17.143Z,48.84
2022-12-01T22:29:46.872Z,48.78
2022-12-01T22:32:13.630Z,48.62
2022-12-01T22:34:53.418Z,48.68
2022-12-01T22:37:32.468Z,48.79
2022-12-01T22:39:59.507Z,48.62
2022-12-01T22:42:34.972Z,47.70
2022-12-01T22:45:23.074Z,48.25
2022-12-01T22:47:51.492Z,49.77
2022-12-01T22:50:32.714Z,50.02
2022-12-01T22:53:11.886Z,49.32
2022-12-01T22:55:40.046Z,48.72
2022-12-01T22:58:22.376Z,48.00
2022-12-01T23:00:49.500Z,47.50
2022-12-01T23:03:16.638Z,47.96
2022-12-01T23:05:45.455Z,48.00
2022-12-01T23:08:22.004Z,47.62
2022-12-01T23:10:50.080Z,48.16
2022-12-01T23:13:25.689Z,47.29
2022-12-01T23:15:53.936Z,47.01
2022-12-01T23:18:28.471Z,48.51
2022-12-01T23:20:57.673Z,48.07
2022-12-01T23:23:36.591Z,48.07
2022-12-01T23:26:07.630Z,48.54
2022-12-01T23:28:39.251Z,47.77
2022-12-01T23:31:06.442Z,48.43
2022-12-01T23:33:34.901Z,48.77
2022-12-01T23:36:15.160Z,48.07
2022-12-01T23:38:45.916Z,47.62
2022-12-01T23:41:25.237Z,48.08
2022-12-01T23:43:55.776Z,47.79
2022-12-01T23:46:28.159Z,47.01
2022-12-01T23:49:13.882Z,48.26
2022-12-01T23:51:47.076Z,46.43
2022-12-01T23:54:21.267Z,46.38
2022-12-01T23:56:52.695Z,45.89
2022-12-01T23:59:20.759Z,47.23
